EEEI

Ämari Air Base Airport

Keila, Estonia
METAR EEEI 250450Z 06006KT CAVOK 13/04 Q1030 NOSIG
Observed Flight Rules
May-25 @ 04:50 UTC (29 minutes ago) Visual Flight Rules
Wind Visibility Clouds
60° at 6 knots 10,000+ meters
  • Clear skies
Temperatures Readings
Current 13°C / 55°F
Dewpoint 4°C / 39°F
Humidity 55%
Altimeter 30.41" Hg
Pressure 1030 hPa
Elevation 20
METAR EEEI 250450Z 06006KT CAVOK 13/04 Q1030 NOSIG
Observed Flight Rules
May-25 @ 04:50 UTC
(29 minutes ago)
VFR
Wind Visibility
60° at 6 knots 10,000+ meters
Clouds
  • Clear skies
Temperature Dewpoint
13°C / 55°F 4°C / 39°F
Humidity Altimeter Pressure
55% 30.41" Hg 1030 hPa